Latest Weather Observations for Yarrawonga

IDV60801

Issued at 11:02 pm EDT Wednesday 28 January 2015 (issued every 30 minutes, with the page automatically refreshed every 10 minutes)

About weather observations | Map of weather stations | Latest weather observations for VIC | Other Formats
Station Details ID: 081124 Name: YARRAWONGA Lat: -36.03 Lon: 146.03 Height: 128.9 m
Data from the previous 72 hours. | See also: Recent months at Yarrawonga
Date/Time
EDT
Temp
°C
App
Temp
°C
Dew
Point
Rel
Hum
%
Delta-T
°C
Wind Press
QNH
hPa
Press
MSL
hPa
Rain
since 9 am
mm
Dir
 
Spd
km/h
Gust
km/h
Spd
kts
Gust
kts
28/11:00pm 17.8 14.6 6.7 48 5.5 SSE 13 19 7 10 1015.2 1014.5 0.0
28/10:30pm 18.4 15.2 6.9 47 5.8 SSE 13 20 7 11 1015.2 1014.5 0.0
28/10:00pm 19.3 15.7 6.8 44 6.3 SSE 15 22 8 12 1014.8 1014.2 0.0
28/09:30pm 20.1 15.6 7.1 43 6.6 SSE 20 28 11 15 1014.3 1013.7 0.0
28/09:00pm 20.8 16.9 7.1 41 7.0 SSE 17 28 9 15 1013.8 1013.2 0.0
28/08:30pm 22.1 16.9 7.1 38 7.8 SSE 24 37 13 20 1013.3 1012.7 0.0
28/08:00pm 23.9 18.3 7.1 34 8.8 SSE 26 39 14 21 1012.9 1012.3 0.0
28/07:30pm 25.9 20.4 6.0 28 10.3 SE 24 37 13 20 1012.5 1011.9 0.0
28/07:00pm 26.0 21.3 6.1 28 10.4 S 20 28 11 15 1012.0 1011.4 0.0
28/06:30pm 28.0 23.4 6.7 26 11.3 S 20 28 11 15 1011.7 1011.1 0.0
28/06:00pm 28.1 24.9 8.4 29 10.8 SE 15 24 8 13 1011.6 1011.0 0.0
28/05:30pm 27.5 23.5 8.4 30 10.4 SSE 19 26 10 14 1011.8 1011.2 0.0
28/05:00pm 26.6 24.0 9.5 34 9.5 S 13 20 7 11 1011.9 1011.3 0.0
28/04:30pm 27.2 23.9 9.5 33 9.8 S 17 24 9 13 1012.0 1011.4 0.0
28/04:00pm 28.0 25.8 9.3 31 10.4 S 11 24 6 13 1012.1 1011.5 0.0
28/03:30pm 28.0 25.1 9.8 32 10.2 S 15 22 8 12 1012.4 1011.8 0.0
28/03:00pm 28.4 25.0 10.6 33 10.1 S 19 24 10 13 1012.8 1012.2 0.0
28/02:30pm 26.7 24.1 9.5 34 9.5 SE 13 20 7 11 1013.0 1012.4 0.0
28/02:00pm 27.4 26.3 10.6 35 9.5 SSE 7 15 4 8 1013.3 1012.7 0.0
28/01:30pm 26.4 25.3 10.1 36 9.1 E 6 19 3 10 1013.6 1013.0 0.0
28/01:00pm 26.3 24.6 10.0 36 9.1 SSE 9 20 5 11 1013.9 1013.3 0.0
28/12:30pm 25.6 24.0 10.2 38 8.6 SSE 9 15 5 8 1014.1 1013.5 0.0
28/12:00pm 24.5 22.7 9.6 39 8.2 E 9 15 5 8 1014.3 1013.7 0.0
28/11:30am 25.7 23.9 10.7 39 8.4 SSE 11 20 6 11 1014.5 1013.9 0.0
28/11:00am 24.9 23.0 10.4 40 8.1 SE 11 22 6 12 1014.6 1014.0 0.0
28/10:30am 23.0 21.0 10.1 44 7.1 SE 11 20 6 11 1014.7 1014.1 0.0
28/10:00am 21.7 19.6 9.9 47 6.4 SE 11 20 6 11 1015.0 1014.3 0.0
28/09:30am 20.7 18.6 9.9 50 5.8 SE 11 19 6 10 1014.7 1014.1 0.0
28/09:00am 20.0 17.2 9.9 52 5.4 SE 15 20 8 11 1014.6 1014.0 0.0
28/08:30am 18.8 16.3 9.8 56 4.8 SE 13 19 7 10 1014.4 1013.8 0.0
28/08:00am 18.0 15.6 9.9 59 4.3 SE 13 19 7 10 1014.0 1013.4 0.0
28/07:30am 17.2 15.1 9.9 62 3.9 SE 11 17 6 9 1013.7 1013.1 0.0
28/07:00am 15.9 14.6 10.0 68 3.1 SE 7 13 4 7 1013.4 1012.8 0.0
28/06:30am 14.0 12.8 9.4 74 2.4 SSE 6 9 3 5 1013.1 1012.5 0.0
28/06:00am 14.5 13.7 9.5 72 2.6 S 4 9 2 5 1012.8 1012.2 0.0
28/05:30am 13.9 12.0 9.1 73 2.5 SSE 9 13 5 7 1012.6 1012.0 0.0
28/05:00am 14.7 13.4 9.3 70 2.8 SSE 6 7 3 4 1012.1 1011.5 0.0
28/04:30am 15.0 14.4 9.1 68 3.0 SSE 2 7 1 4 1012.1 1011.5 0.0
28/04:00am 15.8 14.3 9.2 65 3.4 SSE 7 11 4 6 1012.3 1011.7 0.0
28/03:30am 15.8 14.5 9.2 65 3.4 SSE 6 9 3 5 1012.4 1011.8 0.0
28/03:00am 16.4 15.1 9.1 62 3.8 SSE 6 7 3 4 1012.6 1012.0 0.0
28/02:30am 17.5 15.3 9.2 58 4.3 SE 11 20 6 11 1012.7 1012.1 0.0
28/02:00am 18.2 15.6 9.3 56 4.7 SE 13 20 7 11 1012.8 1012.2 0.0
28/01:30am 17.8 15.7 9.7 59 4.3 SSE 11 19 6 10 1012.8 1012.2 0.0
28/01:00am 16.8 15.4 9.7 63 3.7 SSE 7 9 4 5 1012.8 1012.2 0.0
28/12:30am 17.7 16.0 9.8 60 4.2 S 9 13 5 7 1012.8 1012.2 0.0
28/12:00am 17.8 15.8 10.2 61 4.1 S 11 17 6 9 1012.5 1011.9 0.0
 
Date/Time
EDT
Temp
°C
App
Temp
°C
Dew
Point
Rel
Hum
%
Delta-T
°C
Wind Press
QNH
hPa
Press
MSL
hPa
Rain
since 9 am
mm
Dir
 
Spd
km/h
Gust
km/h
Spd
kts
Gust
kts
27/11:30pm 17.4 15.4 10.1 62 3.9 S 11 15 6 8 1012.5 1011.9 0.0
27/11:00pm 17.6 15.6 10.0 61 4.0 SSW 11 15 6 8 1012.4 1011.8 0.0
27/10:30pm 18.6 15.9 10.2 58 4.5 S 15 17 8 9 1012.1 1011.5 0.0
27/10:00pm 19.5 16.3 10.0 54 5.1 S 17 22 9 12 1011.8 1011.2 0.0
27/09:30pm 20.2 15.6 9.7 51 5.6 SSW 24 32 13 17 1010.9 1010.3 0.0
27/09:00pm 21.6 15.9 9.8 47 6.4 SSW 30 41 16 22 1010.3 1009.7 0.0
27/08:30pm 23.0 17.3 9.8 43 7.2 SSW 30 43 16 23 1009.7 1009.1 0.0
27/08:00pm 24.8 18.7 9.9 39 8.3 SSW 32 41 17 22 1009.2 1008.6 0.0
27/07:30pm 26.7 21.8 10.0 35 9.3 SSW 26 33 14 18 1008.6 1008.0 0.0
27/07:00pm 27.7 26.6 7.0 27 11.1 SSE 2 4 1 2 1008.3 1007.6 0.0
27/06:30pm 27.8 25.3 8.1 29 10.7 SSE 11 17 6 9 1008.2 1007.5 0.0
27/06:00pm 29.5 27.2 9.1 28 11.4 WSW 11 19 6 10 1008.1 1007.4 0.0
27/05:30pm 29.0 28.0 8.7 28 11.2 S 4 7 2 4 1008.3 1007.6 0.0
27/05:00pm 27.6 26.4 9.4 32 10.1 E 6 11 3 6 1008.6 1008.0 0.0
27/04:30pm 29.1 27.8 9.3 29 11.1 SW 6 13 3 7 1008.7 1008.1 0.0
27/04:00pm 29.1 27.3 10.7 32 10.5 W 11 22 6 12 1009.0 1008.4 0.0
27/03:30pm 28.6 27.4 10.3 32 10.4 NW 7 15 4 8 1009.5 1008.9 0.0
27/03:00pm 27.7 26.7 10.9 35 9.6 S 7 11 4 6 1009.9 1009.3 0.0
27/02:30pm 25.5 24.4 10.5 39 8.4 ESE 7 13 4 7 1010.2 1009.6 0.0
27/02:00pm 26.6 26.2 11.1 38 8.8 NW 4 7 2 4 1010.7 1010.1 0.0
27/01:30pm 24.6 24.3 11.5 44 7.4 NW 4 6 2 3 1011.2 1010.6 0.0
27/01:00pm 24.9 23.4 11.8 44 7.5 NW 11 15 6 8 1011.5 1010.9 0.0
27/12:30pm 24.5 23.3 11.5 44 7.4 SW 9 15 5 8 1011.9 1011.3 0.0
27/12:00pm 25.8 25.1 11.9 42 8.0 NE 7 15 4 8 1012.2 1011.6 0.0
27/11:30am 24.7 24.3 12.3 46 7.1 SE 6 9 3 5 1012.5 1011.9 0.0
27/11:00am 23.1 22.0 10.5 45 7.0 SE 7 11 4 6 1012.6 1012.0 0.0
27/10:30am 22.7 21.3 10.8 47 6.6 SE 9 13 5 7 1012.8 1012.2 0.0
27/10:00am 21.8 20.1 10.0 47 6.4 SE 9 13 5 7 1012.9 1012.3 0.0
27/09:30am 21.1 19.0 9.7 48 6.2 SE 11 17 6 9 1013.1 1012.5 0.0
27/09:00am 20.5 18.3 9.4 49 5.9 SE 11 17 6 9 1012.9 1012.3 0.0
27/08:30am 19.0 16.8 9.5 54 5.1 SE 11 19 6 10 1012.8 1012.2 0.0
27/08:00am 17.3 15.5 9.5 60 4.1 ESE 9 15 5 8 1012.5 1011.9 0.0
27/07:30am 13.8 12.6 9.5 75 2.2 SSE 6 7 3 4 1012.5 1011.9 0.0
27/07:00am 12.1 11.3 9.5 84 1.3 S 4 6 2 3 1012.5 1011.9 0.0
27/06:30am 10.3 9.1 8.1 86 1.1 SE 4 6 2 3 1012.3 1011.7 0.0
27/06:00am 9.8 8.4 7.4 85 1.1 S 4 6 2 3 1012.2 1011.6 0.0
27/05:30am 9.8 8.8 7.2 84 1.2 SSE 2 4 1 2 1012.0 1011.4 0.0
27/05:00am 10.3 9.7 7.2 81 1.5 CALM 0 0 0 0 1012.0 1011.4 0.0
27/04:30am 10.4 9.0 7.3 81 1.5 SSW 4 6 2 3 1011.9 1011.3 0.0
27/04:00am 10.8 9.4 7.1 78 1.8 SSW 4 4 2 2 1012.0 1011.4 0.0
27/03:30am 10.8 9.4 7.1 78 1.8 SSW 4 4 2 2 1012.1 1011.5 0.0
27/03:00am 10.9 9.4 7.0 77 1.9 SSW 4 4 2 2 1012.4 1011.8 0.0
27/02:30am 11.5 9.7 7.0 74 2.2 SSW 6 6 3 3 1012.5 1011.9 0.0
27/02:00am 12.0 10.1 6.9 71 2.5 SSW 6 6 3 3 1012.5 1011.9 0.0
27/01:30am 12.0 10.0 6.9 71 2.5 SW 7 7 4 4 1012.7 1012.1 0.0
27/01:00am 13.0 10.6 6.8 66 3.0 SW 9 11 5 6 1012.6 1012.0 0.0
27/12:30am 13.9 11.1 7.0 63 3.4 WSW 11 15 6 8 1012.5 1011.9 0.0
27/12:00am 14.9 11.4 7.0 59 3.9 WSW 15 19 8 10 1012.4 1011.8 0.0
 
Date/Time
EDT
Temp
°C
App
Temp
°C
Dew
Point
Rel
Hum
%
Delta-T
°C
Wind Press
QNH
hPa
Press
MSL
hPa
Rain
since 9 am
mm
Dir
 
Spd
km/h
Gust
km/h
Spd
kts
Gust
kts
26/11:30pm 15.7 11.8 7.0 56 4.3 WSW 17 22 9 12 1012.3 1011.7 0.0
26/11:00pm 16.6 12.0 6.7 52 4.9 WSW 20 24 11 13 1012.3 1011.7 0.0
26/10:30pm 17.5 12.9 6.4 48 5.5 WSW 20 26 11 14 1012.2 1011.6 0.0
26/10:00pm 18.6 14.0 5.8 43 6.3 WSW 19 24 10 13 1011.9 1011.3 0.0
26/09:30pm 19.6 15.0 5.6 40 6.9 WSW 19 30 10 16 1011.7 1011.1 0.0
26/09:00pm 20.2 15.9 5.1 37 7.4 WSW 17 22 9 12 1011.5 1010.9 0.0
26/08:30pm 21.5 16.1 4.6 33 8.3 W 22 32 12 17 1011.2 1010.6 0.0
26/08:00pm 23.0 16.4 4.0 29 9.4 WSW 28 35 15 19 1010.8 1010.2 0.0
26/07:30pm 24.6 19.9 3.3 25 10.5 W 17 26 9 14 1010.5 1009.9 0.0
26/07:00pm 25.9 22.5 1.9 21 11.6 W 9 15 5 8 1010.1 1009.5 0.0
26/06:30pm 26.0 22.1 1.3 20 11.8 SW 11 20 6 11 1009.9 1009.3 0.0
26/06:00pm 26.4 22.1 0.9 19 12.1 WSW 13 19 7 10 1009.9 1009.3 0.0
26/05:30pm 25.6 22.0 0.3 19 11.8 WNW 9 20 5 11 1010.1 1009.5 0.0
26/05:00pm 25.6 22.8 -0.5 18 12.0 NW 4 9 2 5 1010.3 1009.7 0.0
26/04:30pm 26.4 22.4 0.2 18 12.3 WSW 11 22 6 12 1010.7 1010.1 0.0
26/04:00pm 25.6 21.7 1.0 20 11.7 S 11 22 6 12 1011.0 1010.4 0.0
26/03:30pm 25.2 20.7 0.0 19 11.7 WSW 13 26 7 14 1011.5 1010.9 0.0
26/03:00pm 24.0 19.3 1.0 22 10.8 SW 15 26 8 14 1011.5 1010.9 0.0
26/02:30pm 25.2 20.7 2.0 22 11.2 WSW 15 26 8 14 1011.9 1011.3 0.0
26/02:00pm 24.1 20.4 2.3 24 10.5 SW 11 28 6 15 1012.2 1011.6 0.0
26/01:30pm 23.2 19.6 2.7 26 9.8 SW 11 24 6 13 1012.7 1012.1 0.0
26/01:00pm 23.4 19.0 2.8 26 9.9 WSW 15 22 8 12 1013.2 1012.6 0.0
26/12:30pm 22.6 18.6 2.7 27 9.5 WSW 13 24 7 13 1013.3 1012.7 0.0
26/12:00pm 22.1 18.2 3.3 29 9.1 SSW 13 19 7 10 1013.7 1013.1 0.0
26/11:30am 21.8 18.2 3.0 29 9.0 SW 11 26 6 14 1013.9 1013.3 0.0
26/11:00am 20.5 17.0 3.3 32 8.2 SW 11 20 6 11 1014.2 1013.6 0.0
26/10:30am 19.6 16.1 3.7 35 7.6 SSW 11 19 6 10 1014.3 1013.7 0.0
26/10:00am 19.1 16.0 5.6 41 6.7 SSW 11 17 6 9 1014.3 1013.7 0.0
26/09:30am 17.4 13.5 5.4 45 5.8 SSW 15 24 8 13 1014.4 1013.8 0.0
26/09:00am 17.0 12.8 5.6 47 5.5 SSW 17 22 9 12 1014.2 1013.6 0.0
26/08:30am 15.5 12.2 6.5 55 4.4 SSW 13 22 7 12 1014.0 1013.4 0.0
26/08:00am 13.8 10.3 7.1 64 3.3 SW 15 19 8 10 1013.7 1013.1 0.0
26/07:30am 11.9 8.7 6.8 71 2.4 SW 13 17 7 9 1013.6 1013.0 0.0
26/07:00am 10.4 7.1 6.5 77 1.8 WSW 13 15 7 8 1013.3 1012.7 0.0
26/06:30am 9.3 6.3 6.2 81 1.4 WSW 11 13 6 7 1012.8 1012.2 0.0
26/06:00am 9.3 6.3 6.0 80 1.5 WSW 11 13 6 7 1012.6 1012.0 0.0
26/05:30am 9.7 6.6 5.7 76 1.8 WSW 11 13 6 7 1012.4 1011.8 0.0
26/05:00am 10.2 7.1 5.6 73 2.1 SW 11 13 6 7 1012.0 1011.4 0.0
26/04:30am 10.3 7.6 5.5 72 2.2 SW 9 11 5 6 1011.7 1011.1 0.0
26/04:00am 11.3 8.2 5.4 67 2.7 SW 11 13 6 7 1011.7 1011.1 0.0
26/03:30am 11.6 8.5 5.5 66 2.8 SW 11 13 6 7 1011.5 1010.9 0.0
26/03:00am 12.0 9.9 5.6 65 3.0 SW 6 6 3 3 1011.6 1011.0 0.0
26/02:30am 12.7 10.0 5.6 62 3.3 SW 9 13 5 7 1011.4 1010.8 0.0
26/02:00am 13.2 10.1 5.6 60 3.6 SW 11 15 6 8 1011.2 1010.6 0.0
26/01:30am 13.9 10.4 5.5 57 4.0 SW 13 19 7 10 1011.2 1010.6 0.0
26/01:00am 14.9 10.6 5.1 52 4.6 SW 17 22 9 12 1011.2 1010.6 0.0
26/12:30am 15.2 11.3 5.4 52 4.7 SSW 15 19 8 10 1011.2 1010.6 0.0
26/12:00am 16.0 12.1 5.3 49 5.1 SSW 15 20 8 11 1011.0 1010.4 0.0
 
Date/Time
EDT
Temp
°C
App
Temp
°C
Dew
Point
Rel
Hum
%
Delta-T
°C
Wind Press
QNH
hPa
Press
MSL
hPa
Rain
since 9 am
mm
Dir
 
Spd
km/h
Gust
km/h
Spd
kts
Gust
kts
25/11:30pm 16.5 12.3 5.5 48 5.3 S 17 24 9 13 1011.0 1010.4 0.0

Other Formats:

Comma delimited format used in spreadsheet applications
http://www.bom.gov.au/fwo/IDV60801/IDV60801.94862.axf

JavaScript Object Notation format (JSON) in row-major order
http://www.bom.gov.au/fwo/IDV60801/IDV60801.94862.json